DATE METEO

IERI
Time Temp. Dewp. Hum. Bar. 1h Prec. 24h Prec.
00:00 16.2 13.3 83 1014.4 0.0000 0.0000
00:10 16.2 13.3 83 1014.5 0.0000 0.0000
00:19 16.2 13.5 84 1014.5 0.0000 0.0000
00:29 16.2 13.5 84 1014.4 0.0000 0.0000
00:40 16.2 13.7 85 1014.3 0.0000 0.0000
00:50 16.1 13.6 85 1014.2 0.0000 0.0000
00:59 16.1 13.6 85 1014.3 0.0000 0.0000
01:10 16 13.7 86 1014.3 0.0000 0.0000
01:20 16 13.8 87 1014.3 0.0000 0.0000
01:30 16 13.8 87 1014.2 0.0000 0.0000
01:39 15.9 13.7 87 1014.2 0.0000 0.0000
01:50 15.8 13.5 86 1014.2 0.0000 0.0000
02:00 15.6 13.1 85 1014.2 0.0000 0.0000
02:10 15.4 12.9 85 1014.2 0.0000 0.0000
02:20 15.3 12.8 85 1014.2 0.0000 0.0000
02:30 15.2 12.7 85 1014.2 0.0000 0.0000
02:40 14.9 12.4 85 1014.2 0.0000 0.0000
02:50 14.9 12.4 85 1014.3 0.0000 0.0000
03:01 14.8 12.3 85 1014.4 0.0000 0.0000
03:10 14.7 12.4 86 1014.4 0.0000 0.0000
03:20 14.7 12.4 86 1014.4 0.0000 0.0000
03:31 14.6 12.3 86 1014.4 0.0000 0.0000
03:41 14.6 12.3 86 1014.5 0.0000 0.0000
03:51 14.4 12.1 86 1014.5 0.0000 0.0000
04:00 14.3 12 86 1014.5 0.0000 0.0000
04:11 14.1 11.8 86 1014.4 0.0000 0.0000
04:21 14 11.5 85 1014.4 0.0000 0.0000
04:31 13.8 11.5 86 1014.4 0.0000 0.0000
04:41 13.8 11.5 86 1014.3 0.0000 0.0000
04:51 13.7 11.4 86 1014.4 0.0000 0.0000
05:01 13.6 11.3 86 1014.4 0.0000 0.0000
05:11 13.6 11.3 86 1014.3 0.0000 0.0000
05:22 13.5 11.2 86 1014.4 0.0000 0.0000
05:31 13.3 10.8 85 1014.5 0.0000 0.0000
05:41 13.2 10.7 85 1014.5 0.0000 0.0000
05:52 13.1 10.8 86 1014.6 0.0000 0.0000
06:02 13 10.7 86 1014.5 0.0000 0.0000
06:12 13 10.7 86 1014.5 0.0000 0.0000
06:21 12.8 10.5 86 1014.4 0.0000 0.0000
06:32 12.7 10.4 86 1014.4 0.0000 0.0000
06:42 12.7 10.6 87 1014.5 0.0000 0.0000
06:52 12.7 10.6 87 1014.4 0.0000 0.0000
07:02 12.7 10.8 88 1014.3 0.0000 0.0000
07:12 12.9 11 88 1014.3 0.0000 0.0000
07:22 13 11.1 88 1014.4 0.0000 0.0000
07:32 13.2 11.3 88 1014.5 0.0000 0.0000
07:43 13.4 11.5 88 1014.5 0.0000 0.0000
07:52 13.6 11.7 88 1014.4 0.0000 0.0000
08:02 13.9 11.8 87 1014.5 0.0000 0.0000
08:13 13.9 11.8 87 1014.4 0.0000 0.0000
08:23 14.1 12 87 1014.4 0.0000 0.0000
08:32 14.4 12.1 86 1014.3 0.0000 0.0000
08:42 14.6 12.3 86 1014.3 0.0000 0.0000
08:53 14.9 12.4 85 1014.3 0.0000 0.0000
09:03 15.4 12.7 84 1014.3 0.0000 0.0000
09:13 15.5 12.4 82 1014.3 0.0000 0.0000
09:23 15.8 12.7 82 1014.2 0.0000 0.0000
09:33 16 12.7 81 1014.2 0.0000 0.0000
09:43 16.3 12.8 80 1014.1 0.0000 0.0000
09:53 16.5 13 80 1014 0.0000 0.0000
10:03 16.6 12.9 79 1014.1 0.0000 0.0000
10:13 16.8 13.1 79 1014.1 0.0000 0.0000
10:23 17.1 13.2 78 1014 0.0000 0.0000
10:34 17.2 13.1 77 1014.1 0.0000 0.0000
10:44 17.4 13.1 76 1013.9 0.0000 0.0000
10:53 17.6 13.3 76 1013.9 0.0000 0.0000
11:03 17.9 13.6 76 1013.9 0.0000 0.0000
11:14 18.2 13.9 76 1013.9 0.0000 0.0000
11:24 18.3 13.8 75 1013.9 0.0000 0.0000
11:33 18.4 13.7 74 1013.9 0.0000 0.0000
11:44 18.4 13.7 74 1013.8 0.0000 0.0000
11:54 18.6 14.1 75 1013.7 0.0000 0.0000
12:04 18.5 14 75 1013.7 0.0000 0.0000
12:14 18.4 14.1 76 1013.6 0.0000 0.0000
12:24 18.2 14.1 77 1013.5 0.0000 0.0000
12:34 18.2 14.1 77 1013.4 0.0000 0.0000
12:44 18.4 14.1 76 1013.3 0.0000 0.0000
12:55 18.9 14.6 76 1013.2 0.0000 0.0000
13:05 19.3 14.8 75 1013.1 0.0000 0.0000
13:14 19.5 14.3 72 1013.1 0.0000 0.0000
13:24 19.5 14.3 72 1013.1 0.0000 0.0000
13:35 19.5 14.1 71 1013 0.0000 0.0000
13:45 19.6 14 70 1012.8 0.0000 0.0000
13:54 19.8 13.7 68 1012.8 0.0000 0.0000
14:05 20.1 13.1 64 1012.7 0.0000 0.0000
14:15 20.3 13.3 64 1012.6 0.0000 0.0000
14:25 20.5 13.2 63 1012.5 0.0000 0.0000
14:35 20.5 13.5 64 1012.4 0.0000 0.0000
14:45 20.5 14.4 68 1012.4 0.0000 0.0000
14:55 20.4 14.3 68 1012.3 0.0000 0.0000
15:05 20.2 14.1 68 1012.3 0.0000 0.0000
15:15 19.8 14.4 71 1012.4 0.1010 0.1000
15:21 19.6 14.6 73 1012.5 0.3030 0.3000
15:32 19.2 14.9 76 1012.5 1.5150 1.5000
15:41 18.7 14.8 78 1012.5 1.9190 1.9000
15:51 18.1 14.6 80 1012.5 5.5550 5.6000
16:02 17.7 14.4 81 1012.5 6.5650 6.6000
16:12 17.6 14.3 81 1012.4 6.9690 7.1000
16:22 17.8 14.9 83 1012.3 5.7570 7.1000
16:32 18 15.1 83 1012.3 5.5550 7.1000
16:42 17.9 15 83 1012.3 2.7270 7.1000
16:52 18 15.3 84 1012.2 1.0100 7.1000
17:02 18.1 15.4 84 1012.1 0.2020 7.1000
17:12 18 15.3 84 1012.1 0.0000 7.1000
17:22 17.9 15.2 84 1012 0.0000 7.1000
17:32 17.7 15.1 85 1012.1 0.0000 7.1000
17:42 17.9 15.5 86 1012.1 0.0000 7.1000
17:53 18.2 15.6 85 1012.1 0.0000 7.1000
18:02 18.4 15.3 82 1012.1 0.0000 7.1000
18:12 18.3 14.8 80 1012 0.0000 7.1000
18:23 18.3 15 81 1012 0.0000 7.1000
18:33 18.2 14.7 80 1011.9 0.0000 7.1000
18:42 17.9 14.4 80 1011.8 0.0000 7.1000
18:53 18 14.7 81 1011.8 0.0000 7.1000
19:03 18.1 15.2 83 1011.6 0.0000 7.1000
19:13 18 15.1 83 1011.8 0.0000 7.1000
19:23 18 15.1 83 1011.8 0.0000 7.1000
19:33 17.9 15 83 1011.9 0.0000 7.1000
19:43 17.8 14.9 83 1011.9 0.0000 7.1000
19:53 17.6 14.7 83 1011.9 0.0000 7.1000
20:03 17.4 14.7 84 1011.9 0.0000 7.1000
20:14 17.3 14.8 85 1012 0.0000 7.1000
20:23 17.2 14.7 85 1012 0.0000 7.1000
20:33 17.1 14.6 85 1012.1 0.0000 7.1000
20:44 17 14.6 86 1012.2 0.0000 7.1000
20:54 16.9 14.5 86 1012.2 0.0000 7.1000
21:03 16.7 14.3 86 1012.3 0.0000 7.1000
21:14 16.6 14.4 87 1012.3 0.0000 7.1000
21:24 16.4 14.2 87 1012.4 0.0000 7.1000
21:34 16.3 14.3 88 1012.5 0.0000 7.1000
21:44 16.1 14.1 88 1012.6 0.0000 7.1000
21:54 16 14 88 1012.6 0.0000 7.1000
22:04 15.8 13.8 88 1012.6 0.0000 7.1000
22:14 15.7 13.7 88 1012.6 0.0000 7.1000
22:24 15.6 13.8 89 1012.6 0.0000 7.1000
22:34 15.5 13.5 88 1012.6 0.0000 7.1000
22:44 15.4 13.6 89 1012.8 0.0000 7.1000
22:54 15.4 13.6 89 1012.8 0.0000 7.1000
23:05 15.3 13.3 88 1012.9 0.0000 7.1000
23:15 15.2 13.4 89 1012.8 0.0000 7.1000
23:24 15.1 13.3 89 1012.8 0.0000 7.1000
23:35 15 13.2 89 1012.8 0.0000 7.1000
23:45 14.9 13.1 89 1012.9 0.0000 7.1000
23:55 14.9 13.1 89 1012.9 0.0000 7.1000

STATISTICILE ZILEI

2021-08-03
TEMPERATURA
MEDIA
16.4
MAXIM
20.5
14:25
MINIM
12.7
06:32
PRESIUNEA
MEDIA
1013.4
MAXIM
1014.6
05:52
MINIM
1011.6
19:03
PUNCTUL DE ROUĂ
MEDIA
13.4
MAXIM
15.6
17:53
MINIM
10.4
06:32
UMIDITATEA
MEDIA
82
MAXIM
89
22:24
MINIM
63
14:25
PRECIPITATION
RAIN HOUR
7.0
RAIN DAY
7.1
TEMPERATURA (°C)
MINIM
12.7
MAXIM
20.5
MEDIA
16.4
PRESIUNEA (hpa)
MINIM
1011.6
MAXIM
1014.6
MEDIA
1013.4
STATIA METEO